createdAt,value
2019-01-23T00:01:00.106Z,87.06
2019-01-23T00:03:29.263Z,87.11
2019-01-23T00:05:58.605Z,86.39
2019-01-23T00:08:27.951Z,85.98
2019-01-23T00:10:57.014Z,86.30
2019-01-23T00:13:26.229Z,86.00
2019-01-23T00:15:55.449Z,85.30
2019-01-23T00:18:24.810Z,85.44
2019-01-23T00:20:53.837Z,85.53
2019-01-23T00:23:23.431Z,85.63
2019-01-23T00:25:52.515Z,85.88
2019-01-23T00:28:21.618Z,85.96
2019-01-23T00:30:50.878Z,86.00
2019-01-23T00:33:20.000Z,86.08
2019-01-23T00:35:49.267Z,85.74
2019-01-23T00:38:19.809Z,85.38
2019-01-23T00:40:49.026Z,84.93
2019-01-23T00:43:18.145Z,84.85
2019-01-23T00:45:47.173Z,85.44
2019-01-23T00:48:16.420Z,85.70
2019-01-23T00:50:45.468Z,86.09
2019-01-23T00:53:14.768Z,86.21
2019-01-23T00:55:43.934Z,85.94
2019-01-23T00:58:13.181Z,85.51
2019-01-23T01:00:42.440Z,84.86
2019-01-23T01:03:11.828Z,84.69
2019-01-23T01:05:40.926Z,84.81
2019-01-23T01:08:10.221Z,83.58
2019-01-23T01:10:39.435Z,83.35
2019-01-23T01:13:08.502Z,83.75
2019-01-23T01:15:37.885Z,83.94
2019-01-23T01:18:06.950Z,83.64
2019-01-23T01:20:36.162Z,82.83
2019-01-23T01:23:05.325Z,82.10
2019-01-23T01:25:34.639Z,82.33
2019-01-23T01:28:03.927Z,83.08
2019-01-23T01:30:33.242Z,82.48
2019-01-23T01:33:02.515Z,83.05
2019-01-23T01:35:31.666Z,83.10
2019-01-23T01:38:00.933Z,82.57
2019-01-23T01:40:30.207Z,82.91
2019-01-23T01:42:59.242Z,82.70
2019-01-23T01:45:28.790Z,82.73
2019-01-23T01:47:57.886Z,82.63
2019-01-23T01:50:26.923Z,82.71
2019-01-23T01:52:56.162Z,82.86
2019-01-23T01:55:25.410Z,82.82
2019-01-23T01:57:57.283Z,82.75
2019-01-23T02:00:26.640Z,82.99
2019-01-23T02:02:55.828Z,83.37
2019-01-23T02:05:25.073Z,83.34
2019-01-23T02:07:54.157Z,82.76
2019-01-23T02:10:23.538Z,83.44
2019-01-23T02:12:52.788Z,83.35
2019-01-23T02:15:22.044Z,83.57
2019-01-23T02:17:51.261Z,83.91
2019-01-23T02:20:22.754Z,83.94
2019-01-23T02:22:51.857Z,83.38
2019-01-23T02:25:21.050Z,83.69
2019-01-23T02:27:50.241Z,83.76
2019-01-23T02:30:21.331Z,83.90
2019-01-23T02:32:50.387Z,84.03
2019-01-23T02:35:19.617Z,83.79
2019-01-23T02:37:48.984Z,83.96
2019-01-23T02:40:20.138Z,84.17
2019-01-23T02:42:49.369Z,84.26
2019-01-23T02:45:18.868Z,84.35
2019-01-23T02:47:47.945Z,84.13
2019-01-23T02:50:17.181Z,84.39
2019-01-23T02:52:46.224Z,84.54
2019-01-23T02:55:15.482Z,84.74
2019-01-23T02:57:44.649Z,84.77
2019-01-23T03:00:16.344Z,85.04
2019-01-23T03:02:46.109Z,84.86
2019-01-23T03:05:17.127Z,85.22
2019-01-23T03:07:46.469Z,85.12
2019-01-23T03:10:17.513Z,85.49
2019-01-23T03:12:46.932Z,85.41
2019-01-23T03:15:16.597Z,85.51
2019-01-23T03:17:45.736Z,85.26
2019-01-23T03:20:16.580Z,85.35
2019-01-23T03:22:45.627Z,85.30
2019-01-23T03:25:15.347Z,85.78
2019-01-23T03:27:45.010Z,85.64
2019-01-23T03:30:16.759Z,85.51
2019-01-23T03:32:45.894Z,85.36
2019-01-23T03:35:16.920Z,85.26
2019-01-23T03:37:45.991Z,85.56
2019-01-23T03:40:17.414Z,86.07
2019-01-23T03:42:46.529Z,86.09
2019-01-23T03:45:16.299Z,86.37
2019-01-23T03:47:45.628Z,86.53
2019-01-23T03:50:16.678Z,86.83
2019-01-23T03:52:46.050Z,87.42
2019-01-23T03:55:15.720Z,87.31
2019-01-23T03:57:44.839Z,86.71
2019-01-23T04:00:21.591Z,86.80
2019-01-23T04:02:51.807Z,87.40
2019-01-23T04:05:20.966Z,87.83
2019-01-23T04:07:50.143Z,87.88
2019-01-23T04:10:19.374Z,87.84
2019-01-23T04:12:48.492Z,87.90
2019-01-23T04:15:17.779Z,88.06
2019-01-23T04:17:47.241Z,88.19
2019-01-23T04:20:21.326Z,88.07
2019-01-23T04:22:50.641Z,88.21
2019-01-23T04:25:19.884Z,88.35
2019-01-23T04:27:48.966Z,88.31
2019-01-23T04:30:23.007Z,88.14
2019-01-23T04:32:52.311Z,88.45
2019-01-23T04:35:21.393Z,88.70
2019-01-23T04:37:50.514Z,89.11
2019-01-23T04:40:19.782Z,88.85
2019-01-23T04:42:49.144Z,89.12
2019-01-23T04:45:18.287Z,89.14
2019-01-23T04:47:47.814Z,89.38
2019-01-23T04:50:17.687Z,89.08
2019-01-23T04:53:12.143Z,89.08
2019-01-23T04:55:41.629Z,89.41
2019-01-23T04:58:11.070Z,89.67
2019-01-23T05:00:40.192Z,89.30
2019-01-23T05:03:09.257Z,88.71
2019-01-23T05:05:38.378Z,88.60
2019-01-23T05:08:07.617Z,88.86
2019-01-23T05:10:36.726Z,88.68
2019-01-23T05:13:06.226Z,89.06
2019-01-23T05:15:35.297Z,89.44
2019-01-23T05:18:04.343Z,89.81
2019-01-23T05:20:33.694Z,90.00
2019-01-23T05:23:02.891Z,89.81
2019-01-23T05:25:32.037Z,89.65
2019-01-23T05:28:01.259Z,89.65
2019-01-23T05:30:30.479Z,89.72
2019-01-23T05:32:59.730Z,90.04
2019-01-23T05:35:28.977Z,90.11
2019-01-23T05:37:58.137Z,90.38
2019-01-23T05:40:27.577Z,90.54
2019-01-23T05:42:56.622Z,90.10
2019-01-23T05:45:25.877Z,90.25
2019-01-23T05:47:54.913Z,90.35
2019-01-23T05:50:24.248Z,90.55
2019-01-23T05:52:54.753Z,90.48
2019-01-23T05:55:23.875Z,90.24
2019-01-23T05:57:53.070Z,90.20
2019-01-23T06:00:23.277Z,90.41
2019-01-23T06:02:52.397Z,90.39
2019-01-23T06:05:21.667Z,90.35
2019-01-23T06:07:50.790Z,90.22
2019-01-23T06:10:20.076Z,90.53
2019-01-23T06:12:49.527Z,90.37
2019-01-23T06:15:18.591Z,90.34
2019-01-23T06:17:47.697Z,90.13
2019-01-23T06:20:19.156Z,90.33
2019-01-23T06:22:48.325Z,90.10
2019-01-23T06:25:17.504Z,89.61
2019-01-23T06:27:46.815Z,89.83
2019-01-23T06:30:24.222Z,90.00
2019-01-23T06:32:53.521Z,90.07
2019-01-23T06:35:23.173Z,89.89
2019-01-23T06:37:52.250Z,89.51
2019-01-23T06:40:21.367Z,89.43
2019-01-23T06:42:50.697Z,89.68
2019-01-23T06:45:19.954Z,89.40
2019-01-23T06:47:50.329Z,89.28
2019-01-23T06:50:21.651Z,89.24
2019-01-23T06:52:50.827Z,88.99
2019-01-23T06:55:20.113Z,88.82
2019-01-23T06:57:49.389Z,88.70
2019-01-23T07:00:25.898Z,88.39
2019-01-23T07:02:55.425Z,88.47
2019-01-23T07:05:24.931Z,88.34
2019-01-23T07:07:54.002Z,88.38
2019-01-23T07:10:24.954Z,88.00
2019-01-23T07:12:54.018Z,88.29
2019-01-23T07:15:23.150Z,88.69
2019-01-23T07:17:52.385Z,88.73
2019-01-23T07:20:28.004Z,88.42
2019-01-23T07:22:57.135Z,88.17
2019-01-23T07:25:27.591Z,88.10
2019-01-23T07:27:56.651Z,87.43
2019-01-23T07:30:28.842Z,86.56
2019-01-23T07:32:57.923Z,86.54
2019-01-23T07:35:27.086Z,87.25
2019-01-23T07:37:56.137Z,86.50
2019-01-23T07:40:25.271Z,86.09
2019-01-23T07:42:54.452Z,85.32
2019-01-23T07:45:23.714Z,84.80
2019-01-23T07:47:52.897Z,84.30
2019-01-23T07:50:22.131Z,84.16
2019-01-23T07:52:51.275Z,83.81
2019-01-23T07:55:20.532Z,83.37
2019-01-23T07:57:49.619Z,82.19
2019-01-23T08:00:20.252Z,83.15
2019-01-23T08:02:49.519Z,83.62
2019-01-23T08:05:23.233Z,83.70
2019-01-23T08:07:53.456Z,83.17
2019-01-23T08:10:23.599Z,82.09
2019-01-23T08:12:52.817Z,82.17
2019-01-23T08:15:27.300Z,82.00
2019-01-23T08:17:56.386Z,82.08
2019-01-23T08:20:25.899Z,82.15
2019-01-23T08:22:55.071Z,81.01
2019-01-23T08:25:24.417Z,80.71
2019-01-23T08:27:53.521Z,79.91
2019-01-23T08:30:23.254Z,79.32
2019-01-23T08:32:52.915Z,78.56
2019-01-23T08:35:22.882Z,79.42
2019-01-23T08:37:51.989Z,79.48
2019-01-23T08:40:21.207Z,79.57
2019-01-23T08:42:50.613Z,79.49
2019-01-23T08:45:19.799Z,78.75
2019-01-23T08:47:50.846Z,79.00
2019-01-23T08:50:26.740Z,78.73
2019-01-23T08:52:56.113Z,78.87
2019-01-23T08:55:25.209Z,78.18
2019-01-23T08:57:54.755Z,78.46
2019-01-23T09:00:23.950Z,78.16
2019-01-23T09:02:53.383Z,77.35
2019-01-23T09:05:22.561Z,77.87
2019-01-23T09:07:51.656Z,78.17
2019-01-23T09:10:21.989Z,77.38
2019-01-23T09:12:51.062Z,77.30
2019-01-23T09:15:20.166Z,77.09
2019-01-23T09:17:49.215Z,77.09
2019-01-23T09:20:18.815Z,76.48
2019-01-23T09:22:47.883Z,76.05
2019-01-23T09:25:18.909Z,76.51
2019-01-23T09:27:47.967Z,76.16
2019-01-23T09:30:23.058Z,76.78
2019-01-23T09:33:35.759Z,75.84
2019-01-23T09:36:40.556Z,76.34
2019-01-23T09:39:41.226Z,76.58
2019-01-23T09:42:28.325Z,76.29
2019-01-23T09:45:24.607Z,76.41
2019-01-23T09:48:06.574Z,76.12
2019-01-23T09:50:57.819Z,76.49
2019-01-23T09:53:37.769Z,76.16
2019-01-23T09:56:07.055Z,75.80
2019-01-23T09:58:36.155Z,75.49
2019-01-23T10:01:06.642Z,75.55
2019-01-23T10:03:35.978Z,74.58
2019-01-23T10:06:05.127Z,74.41
2019-01-23T10:08:34.281Z,74.94
2019-01-23T10:11:03.420Z,75.16
2019-01-23T10:13:32.589Z,75.67
2019-01-23T10:16:09.545Z,75.06
2019-01-23T10:18:38.786Z,75.19
2019-01-23T10:21:07.971Z,74.57
2019-01-23T10:23:37.234Z,74.30
2019-01-23T10:26:06.330Z,74.63
2019-01-23T10:28:35.694Z,74.78
2019-01-23T10:31:06.847Z,75.26
2019-01-23T10:33:35.982Z,75.35
2019-01-23T10:36:05.814Z,74.28
2019-01-23T10:38:35.175Z,73.44
2019-01-23T10:41:04.358Z,73.15
2019-01-23T10:43:33.486Z,72.99
2019-01-23T10:46:02.572Z,72.94
2019-01-23T10:48:37.807Z,73.48
2019-01-23T10:51:02.599Z,72.13
2019-01-23T10:53:31.745Z,73.15
2019-01-23T10:56:01.409Z,72.41
2019-01-23T10:58:30.789Z,73.00
2019-01-23T11:00:59.986Z,72.05
2019-01-23T11:03:29.103Z,71.92
2019-01-23T11:05:58.215Z,72.16
2019-01-23T11:08:27.334Z,72.06
2019-01-23T11:10:56.478Z,71.88
2019-01-23T11:13:25.691Z,72.50
2019-01-23T11:15:54.827Z,72.22
2019-01-23T11:18:23.979Z,72.53
2019-01-23T11:20:54.104Z,71.94
2019-01-23T11:23:23.671Z,72.48
2019-01-23T11:25:52.812Z,72.73
2019-01-23T11:28:21.924Z,72.66
2019-01-23T11:30:51.114Z,72.78
2019-01-23T11:33:20.243Z,72.50
2019-01-23T11:35:49.791Z,71.77
2019-01-23T11:38:18.887Z,72.81
2019-01-23T11:40:48.003Z,73.05
2019-01-23T11:43:17.220Z,72.39
2019-01-23T11:45:46.470Z,71.99
2019-01-23T11:48:15.705Z,70.51
2019-01-23T11:50:45.008Z,70.59
2019-01-23T11:53:14.360Z,71.16
2019-01-23T11:55:43.648Z,71.24
2019-01-23T11:58:12.788Z,71.14
2019-01-23T12:00:41.843Z,70.63
2019-01-23T12:03:11.018Z,70.34
2019-01-23T12:05:40.088Z,70.34
2019-01-23T12:08:09.432Z,70.13
2019-01-23T12:10:38.874Z,70.10
2019-01-23T12:13:07.966Z,70.15
2019-01-23T12:15:40.990Z,70.29
2019-01-23T12:18:08.323Z,70.26
2019-01-23T12:20:37.604Z,70.88
2019-01-23T12:23:07.005Z,70.30
2019-01-23T12:25:36.208Z,70.62
2019-01-23T12:28:05.421Z,70.39
2019-01-23T12:30:35.624Z,70.15
2019-01-23T12:33:05.642Z,70.29
2019-01-23T12:35:34.912Z,70.56
2019-01-23T12:38:04.217Z,70.37
2019-01-23T12:40:33.505Z,70.29
2019-01-23T12:43:02.663Z,70.12
2019-01-23T12:45:31.820Z,69.55
2019-01-23T12:48:01.366Z,69.53
2019-01-23T12:50:31.940Z,69.69
2019-01-23T12:53:01.314Z,69.37
2019-01-23T12:55:30.410Z,69.03
2019-01-23T12:57:59.819Z,69.15
2019-01-23T13:00:31.740Z,68.69
2019-01-23T13:03:01.563Z,68.85
2019-01-23T13:05:30.640Z,69.03
2019-01-23T13:07:59.745Z,69.80
2019-01-23T13:10:29.116Z,70.03
2019-01-23T13:12:58.391Z,70.49
2019-01-23T13:15:27.840Z,70.08
2019-01-23T13:17:57.387Z,70.56
2019-01-23T13:20:26.827Z,71.37
2019-01-23T13:22:56.122Z,71.59
2019-01-23T13:25:29.126Z,71.60
2019-01-23T13:28:00.962Z,71.92
2019-01-23T13:30:30.152Z,71.63
2019-01-23T13:32:59.992Z,73.89
2019-01-23T13:35:35.302Z,71.41
2019-01-23T13:38:05.787Z,71.15
2019-01-23T13:40:37.451Z,71.50
2019-01-23T13:43:07.698Z,71.17
2019-01-23T13:45:37.037Z,71.71
2019-01-23T13:48:08.598Z,72.13
2019-01-23T13:50:37.689Z,72.92
2019-01-23T13:53:07.018Z,73.71
2019-01-23T13:55:36.297Z,74.08
2019-01-23T13:58:05.806Z,73.96
2019-01-23T14:00:38.102Z,73.72
2019-01-23T14:03:07.829Z,73.88
2019-01-23T14:05:36.956Z,73.44
2019-01-23T14:08:07.248Z,73.96
2019-01-23T14:10:36.416Z,74.10
2019-01-23T14:13:06.657Z,74.37
2019-01-23T14:15:37.179Z,74.30
2019-01-23T14:18:07.276Z,74.44
2019-01-23T14:20:36.473Z,74.77
2019-01-23T14:23:06.043Z,74.33
2019-01-23T14:25:35.300Z,74.65
2019-01-23T14:28:04.781Z,74.42
2019-01-23T14:30:42.092Z,74.35
2019-01-23T14:33:11.428Z,75.02
2019-01-23T14:35:43.089Z,74.62
2019-01-23T14:38:12.381Z,74.66
2019-01-23T14:40:41.775Z,74.86
2019-01-23T14:43:10.920Z,75.04
2019-01-23T14:45:40.207Z,75.05
2019-01-23T14:48:09.539Z,74.77
2019-01-23T14:50:38.627Z,74.61
2019-01-23T14:53:08.217Z,74.91
2019-01-23T14:55:37.312Z,74.42
2019-01-23T14:58:06.687Z,74.71
2019-01-23T15:00:35.768Z,74.41
2019-01-23T15:03:05.269Z,75.40
2019-01-23T15:05:34.386Z,75.57
2019-01-23T15:08:03.691Z,75.21
2019-01-23T15:10:33.210Z,75.07
2019-01-23T15:13:02.847Z,75.04
2019-01-23T15:15:32.075Z,74.99
2019-01-23T15:18:01.381Z,75.24
2019-01-23T15:20:38.862Z,75.55
2019-01-23T15:23:08.283Z,75.62
2019-01-23T15:25:37.414Z,75.70
2019-01-23T15:28:06.763Z,76.10
2019-01-23T15:30:35.823Z,76.03
2019-01-23T15:33:05.455Z,75.86
2019-01-23T15:35:34.645Z,76.19
2019-01-23T15:38:03.870Z,76.35
2019-01-23T15:40:35.584Z,76.15
2019-01-23T15:43:04.889Z,76.56
2019-01-23T15:45:34.122Z,76.47
2019-01-23T15:48:03.502Z,76.61
2019-01-23T15:50:32.718Z,76.25
2019-01-23T15:53:01.837Z,76.06
2019-01-23T15:55:31.009Z,76.69
2019-01-23T15:58:00.383Z,76.40
2019-01-23T16:00:31.562Z,76.31
2019-01-23T16:03:00.737Z,76.46
2019-01-23T16:05:29.872Z,76.32
2019-01-23T16:07:59.001Z,77.02
2019-01-23T16:10:29.498Z,77.07
2019-01-23T16:12:58.575Z,76.99
2019-01-23T16:15:29.196Z,77.10
2019-01-23T16:17:58.461Z,76.80
2019-01-23T16:20:27.711Z,76.65
2019-01-23T16:22:56.906Z,77.20
2019-01-23T16:25:27.665Z,76.52
2019-01-23T16:27:56.833Z,76.36
2019-01-23T16:30:35.051Z,76.83
2019-01-23T16:33:05.427Z,77.42
2019-01-23T16:35:38.872Z,77.19
2019-01-23T16:38:07.520Z,76.99
2019-01-23T16:40:36.916Z,77.84
2019-01-23T16:43:06.699Z,77.54
2019-01-23T16:45:35.846Z,78.45
2019-01-23T16:48:05.503Z,78.15
2019-01-23T16:50:34.780Z,78.56
2019-01-23T16:53:04.285Z,78.73
2019-01-23T16:55:34.837Z,78.76
2019-01-23T16:58:09.819Z,79.11
2019-01-23T17:00:39.990Z,79.47
2019-01-23T17:03:09.863Z,79.04
2019-01-23T17:05:39.435Z,79.56
2019-01-23T17:08:09.753Z,79.63
2019-01-23T17:10:39.324Z,79.39
2019-01-23T17:13:08.814Z,78.83
2019-01-23T17:15:38.479Z,79.08
2019-01-23T17:18:08.432Z,79.45
2019-01-23T17:20:42.940Z,79.55
2019-01-23T17:23:12.022Z,79.33
2019-01-23T17:25:43.249Z,79.16
2019-01-23T17:28:14.045Z,78.75
2019-01-23T17:30:43.763Z,79.09
2019-01-23T17:33:13.103Z,79.29
2019-01-23T17:35:43.233Z,79.12
2019-01-23T17:38:12.617Z,79.06
2019-01-23T17:40:41.685Z,78.62
2019-01-23T17:43:11.939Z,78.74
2019-01-23T17:45:41.484Z,79.17
2019-01-23T17:48:12.789Z,78.78
2019-01-23T17:50:42.024Z,79.25
2019-01-23T17:53:11.190Z,79.08
2019-01-23T17:55:42.023Z,79.19
2019-01-23T17:58:14.948Z,79.31
2019-01-23T18:00:57.528Z,79.30
2019-01-23T18:03:26.880Z,79.61
2019-01-23T18:05:55.997Z,79.19
2019-01-23T18:08:25.212Z,79.27
2019-01-23T18:10:54.380Z,79.60
2019-01-23T18:13:23.499Z,78.95
2019-01-23T18:15:53.653Z,78.54
2019-01-23T18:18:23.093Z,78.98
2019-01-23T18:20:52.242Z,79.01
2019-01-23T18:23:21.390Z,78.67
2019-01-23T18:25:50.798Z,78.83
2019-01-23T18:28:19.943Z,78.74
2019-01-23T18:30:59.788Z,78.73
2019-01-23T18:33:37.965Z,79.03
2019-01-23T18:36:42.786Z,78.58
2019-01-23T18:39:29.885Z,78.46
2019-01-23T18:42:30.526Z,79.11
2019-01-23T18:45:23.783Z,79.04
2019-01-23T18:48:34.112Z,79.59
2019-01-23T18:51:09.187Z,79.37
2019-01-23T18:53:38.468Z,78.88
2019-01-23T18:56:07.742Z,81.35
2019-01-23T18:58:37.115Z,79.55
2019-01-23T19:01:06.476Z,79.93
2019-01-23T19:03:36.114Z,79.73
2019-01-23T19:06:05.682Z,80.00
2019-01-23T19:08:34.834Z,79.18
2019-01-23T19:11:04.419Z,78.71
2019-01-23T19:13:33.597Z,78.63
2019-01-23T19:16:03.415Z,78.52
2019-01-23T19:18:32.694Z,78.87
2019-01-23T19:21:02.420Z,78.76
2019-01-23T19:23:32.122Z,78.23
2019-01-23T19:26:01.312Z,78.46
2019-01-23T19:28:30.448Z,77.49
2019-01-23T19:30:59.932Z,77.61
2019-01-23T19:33:29.291Z,78.09
2019-01-23T19:35:59.954Z,78.18
2019-01-23T19:38:29.767Z,78.55
2019-01-23T19:40:58.910Z,78.25
2019-01-23T19:43:28.242Z,77.97
2019-01-23T19:45:57.895Z,77.97
2019-01-23T19:48:27.230Z,78.41
2019-01-23T19:50:56.389Z,78.35
2019-01-23T19:53:25.856Z,78.36
2019-01-23T19:55:54.963Z,78.49
2019-01-23T19:58:24.226Z,77.99
2019-01-23T20:00:53.432Z,77.55
2019-01-23T20:03:22.570Z,77.32
2019-01-23T20:05:52.481Z,76.95
2019-01-23T20:08:21.880Z,77.49
2019-01-23T20:10:51.463Z,77.41
2019-01-23T20:13:20.599Z,77.96
2019-01-23T20:15:49.993Z,77.82
2019-01-23T20:18:19.369Z,77.65
2019-01-23T20:20:48.580Z,77.66
2019-01-23T20:23:17.792Z,77.31
2019-01-23T20:25:47.023Z,77.68
2019-01-23T20:28:17.103Z,77.85
2019-01-23T20:30:46.802Z,77.75
2019-01-23T20:33:16.313Z,77.96
2019-01-23T20:35:45.448Z,77.17
2019-01-23T20:38:14.497Z,77.55
2019-01-23T20:40:44.156Z,77.81
2019-01-23T20:43:13.432Z,77.96
2019-01-23T20:45:42.655Z,78.08
2019-01-23T20:48:12.459Z,78.28
2019-01-23T20:50:42.094Z,78.77
2019-01-23T20:53:11.340Z,78.22
2019-01-23T20:55:40.920Z,78.38
2019-01-23T20:58:10.412Z,78.46
2019-01-23T21:00:40.356Z,78.66
2019-01-23T21:03:09.714Z,78.18
2019-01-23T21:05:38.886Z,78.61
2019-01-23T21:08:08.266Z,78.73
2019-01-23T21:10:37.444Z,78.27
2019-01-23T21:13:06.628Z,78.60
2019-01-23T21:15:35.946Z,78.61
2019-01-23T21:18:06.959Z,77.44
2019-01-23T21:20:38.462Z,77.60
2019-01-23T21:23:09.175Z,77.59
2019-01-23T21:25:38.596Z,77.11
2019-01-23T21:28:09.128Z,77.49
2019-01-23T21:30:38.347Z,78.02
2019-01-23T21:33:08.164Z,77.69
2019-01-23T21:35:37.353Z,78.15
2019-01-23T21:38:06.491Z,77.55
2019-01-23T21:40:35.812Z,77.04
2019-01-23T21:43:05.344Z,77.62
2019-01-23T21:45:36.527Z,77.62
2019-01-23T21:48:06.548Z,77.35
2019-01-23T21:50:35.901Z,77.38
2019-01-23T21:53:05.963Z,77.62
2019-01-23T21:55:35.263Z,77.51
2019-01-23T21:58:05.078Z,77.61
2019-01-23T22:00:37.294Z,77.27
2019-01-23T22:03:08.372Z,76.99
2019-01-23T22:05:37.816Z,77.24
2019-01-23T22:08:06.956Z,77.74
2019-01-23T22:10:38.394Z,77.19
2019-01-23T22:13:07.776Z,77.56
2019-01-23T22:15:37.233Z,77.90
2019-01-23T22:18:07.797Z,78.41
2019-01-23T22:20:36.894Z,78.42
2019-01-23T22:23:08.193Z,78.59
2019-01-23T22:25:37.322Z,78.78
2019-01-23T22:28:06.626Z,78.83
2019-01-23T22:30:36.768Z,78.57
2019-01-23T22:33:06.925Z,78.31
2019-01-23T22:35:36.378Z,78.27
2019-01-23T22:38:05.957Z,78.08
2019-01-23T22:40:35.129Z,78.37
2019-01-23T22:43:04.261Z,78.27
2019-01-23T22:45:33.587Z,77.98
2019-01-23T22:48:03.206Z,77.36
2019-01-23T22:50:32.841Z,77.37
2019-01-23T22:53:01.927Z,77.81
2019-01-23T22:55:31.158Z,78.21
2019-01-23T22:58:00.550Z,78.31
2019-01-23T23:00:45.749Z,77.87
2019-01-23T23:03:17.558Z,78.15
2019-01-23T23:05:46.805Z,78.94
2019-01-23T23:08:16.117Z,79.79
2019-01-23T23:10:45.280Z,81.21
2019-01-23T23:13:14.547Z,82.55
2019-01-23T23:15:43.894Z,84.02
2019-01-23T23:18:13.452Z,84.82
2019-01-23T23:20:42.696Z,84.95
2019-01-23T23:23:12.873Z,86.36
2019-01-23T23:25:42.182Z,86.32
2019-01-23T23:28:11.331Z,86.99
2019-01-23T23:30:40.699Z,87.98
2019-01-23T23:33:09.987Z,87.79
2019-01-23T23:35:39.193Z,88.42
2019-01-23T23:38:08.334Z,88.54
2019-01-23T23:40:37.488Z,88.73
2019-01-23T23:43:06.735Z,89.16
2019-01-23T23:45:35.928Z,89.99
2019-01-23T23:48:05.477Z,90.87
2019-01-23T23:50:34.609Z,91.33
2019-01-23T23:53:03.782Z,91.08
2019-01-23T23:55:32.953Z,91.02
2019-01-23T23:58:02.171Z,91.50
